Nuiqsut Airport Nuiqsut US
ICAO: PAQT
IATA:
Category: Medium
Scheduled Services:

Elevation: 38 ft
TransAlt. 0 ft.

Airport Communications:
ANCHORAGE CNTR:119.4
ASOS:122.5
CTAF:122.8
DEADHORSE RDO:122.5

PAQT Zoom In..

Runways:

(A) RW 05 length 4589 ft width 100 ft
---- / hdg 49

(B) RW 23 length 4589 ft width 100 ft
---- / hdg 229

Location; PAQT
Day. 23 / Time. 21.59 Zulu
* Altimeter: 29.85
* Temperature: -01° c. -30.2°f.
* Wind from: 080° Speed 19 kn.
Dewpoint: -02° c.
Visibility: 4 Statute Miles.
Clouds: Few 900 ft.
Clouds: Overcast 1400 ft.
Conditions: Light Snow.Conditions: Mist.

PAQT 232159Z AUTO 08019KT 4SM -SN BR FEW009 OVC014 M01/M02 A2985 RMK AO2 P0000 T10111017 TSNO


Wind From 080°
Speed 19 kn.

 
 
jpsmedia.com for Web Design SOUNDCLOUD worldairports.se 2018   terms of use